sensor_id;sensor_type;location;lat;lon;timestamp;P1;durP1;ratioP1;P2;durP2;ratioP2
38379;SDS011;38377;47.418;18.882;2024-03-23T00:54:15;23.33;;;13.03;;
38379;SDS011;38377;47.418;18.882;2024-03-23T00:56:41;23.87;;;13.03;;
38379;SDS011;38377;47.418;18.882;2024-03-23T00:59:07;23.43;;;12.37;;
38379;SDS011;38377;47.418;18.882;2024-03-23T01:01:32;26.67;;;12.02;;
38379;SDS011;38377;47.418;18.882;2024-03-23T01:03:58;23.07;;;12.63;;
38379;SDS011;38377;47.418;18.882;2024-03-23T01:06:24;21.65;;;12.60;;
38379;SDS011;38377;47.418;18.882;2024-03-23T01:08:50;23.93;;;13.00;;
38379;SDS011;38377;47.418;18.882;2024-03-23T01:11:18;25.00;;;14.35;;
38379;SDS011;38377;47.418;18.882;2024-03-23T01:13:43;27.70;;;14.35;;
38379;SDS011;38377;47.418;18.882;2024-03-23T01:16:12;23.70;;;13.67;;
38379;SDS011;38377;47.418;18.882;2024-03-23T01:24:36;23.33;;;12.13;;
38379;SDS011;38377;47.418;18.882;2024-03-23T01:27:04;31.27;;;15.90;;
38379;SDS011;38377;47.418;18.882;2024-03-23T01:29:30;26.47;;;13.60;;
38379;SDS011;38377;47.418;18.882;2024-03-23T01:31:56;29.00;;;15.17;;
38379;SDS011;38377;47.418;18.882;2024-03-23T01:34:21;30.47;;;15.53;;
38379;SDS011;38377;47.418;18.882;2024-03-23T01:39:56;23.10;;;12.87;;
38379;SDS011;38377;47.418;18.882;2024-03-23T01:42:22;40.23;;;19.40;;
38379;SDS011;38377;47.418;18.882;2024-03-23T01:44:48;33.13;;;18.73;;
38379;SDS011;38377;47.418;18.882;2024-03-23T01:47:16;44.03;;;21.13;;
38379;SDS011;38377;47.418;18.882;2024-03-23T01:49:58;35.97;;;18.50;;
38379;SDS011;38377;47.418;18.882;2024-03-23T01:52:26;38.23;;;18.57;;
38379;SDS011;38377;47.418;18.882;2024-03-23T01:54:53;36.13;;;18.27;;
38379;SDS011;38377;47.418;18.882;2024-03-23T01:57:21;34.17;;;18.30;;
38379;SDS011;38377;47.418;18.882;2024-03-23T01:59:47;38.00;;;18.57;;
38379;SDS011;38377;47.418;18.882;2024-03-23T02:02:13;30.53;;;15.13;;
38379;SDS011;38377;47.418;18.882;2024-03-23T02:04:39;26.60;;;14.00;;
38379;SDS011;38377;47.418;18.882;2024-03-23T02:07:06;23.43;;;13.47;;
38379;SDS011;38377;47.418;18.882;2024-03-23T02:09:32;25.77;;;15.17;;
38379;SDS011;38377;47.418;18.882;2024-03-23T02:12:04;27.77;;;14.00;;
38379;SDS011;38377;47.418;18.882;2024-03-23T02:14:40;27.63;;;14.90;;
38379;SDS011;38377;47.418;18.882;2024-03-23T02:17:34;26.90;;;14.65;;
38379;SDS011;38377;47.418;18.882;2024-03-23T02:20:03;26.67;;;15.30;;
38379;SDS011;38377;47.418;18.882;2024-03-23T02:22:39;27.27;;;15.88;;
38379;SDS011;38377;47.418;18.882;2024-03-23T02:25:30;30.20;;;16.10;;
38379;SDS011;38377;47.418;18.882;2024-03-23T02:27:56;26.17;;;15.27;;
38379;SDS011;38377;47.418;18.882;2024-03-23T02:30:31;27.50;;;14.97;;
38379;SDS011;38377;47.418;18.882;2024-03-23T02:33:01;28.67;;;15.60;;
38379;SDS011;38377;47.418;18.882;2024-03-23T02:35:59;28.07;;;16.20;;
38379;SDS011;38377;47.418;18.882;2024-03-23T02:49:18;29.33;;;16.47;;
38379;SDS011;38377;47.418;18.882;2024-03-23T02:55:45;31.20;;;16.02;;
38379;SDS011;38377;47.418;18.882;2024-03-23T02:58:11;27.27;;;16.67;;
38379;SDS011;38377;47.418;18.882;2024-03-23T03:00:36;28.73;;;16.50;;
38379;SDS011;38377;47.418;18.882;2024-03-23T03:03:02;32.53;;;17.53;;
38379;SDS011;38377;47.418;18.882;2024-03-23T03:05:28;31.83;;;18.50;;
38379;SDS011;38377;47.418;18.882;2024-03-23T03:07:54;31.87;;;16.90;;
38379;SDS011;38377;47.418;18.882;2024-03-23T03:10:19;31.63;;;16.87;;
38379;SDS011;38377;47.418;18.882;2024-03-23T03:12:45;29.23;;;17.70;;
38379;SDS011;38377;47.418;18.882;2024-03-23T03:15:10;34.33;;;18.40;;
38379;SDS011;38377;47.418;18.882;2024-03-23T03:17:36;31.37;;;17.20;;
38379;SDS011;38377;47.418;18.882;2024-03-23T03:20:02;32.23;;;17.50;;
38379;SDS011;38377;47.418;18.882;2024-03-23T03:22:47;38.07;;;17.70;;
38379;SDS011;38377;47.418;18.882;2024-03-23T03:25:22;45.33;;;19.77;;
38379;SDS011;38377;47.418;18.882;2024-03-23T03:28:07;36.80;;;17.70;;
38379;SDS011;38377;47.418;18.882;2024-03-23T03:33:04;32.80;;;19.03;;
38379;SDS011;38377;47.418;18.882;2024-03-23T03:35:30;35.77;;;17.87;;
38379;SDS011;38377;47.418;18.882;2024-03-23T03:37:55;34.53;;;19.43;;
38379;SDS011;38377;47.418;18.882;2024-03-23T03:40:21;33.93;;;17.67;;
38379;SDS011;38377;47.418;18.882;2024-03-23T03:42:47;35.97;;;18.10;;
38379;SDS011;38377;47.418;18.882;2024-03-23T03:45:14;32.30;;;18.43;;
38379;SDS011;38377;47.418;18.882;2024-03-23T03:47:39;31.73;;;17.87;;
38379;SDS011;38377;47.418;18.882;2024-03-23T03:50:08;33.67;;;18.20;;
38379;SDS011;38377;47.418;18.882;2024-03-23T03:52:33;36.50;;;19.20;;
38379;SDS011;38377;47.418;18.882;2024-03-23T03:55:02;29.50;;;15.80;;
38379;SDS011;38377;47.418;18.882;2024-03-23T03:57:36;27.50;;;15.90;;
38379;SDS011;38377;47.418;18.882;2024-03-23T04:00:02;33.60;;;16.77;;
38379;SDS011;38377;47.418;18.882;2024-03-23T04:02:29;34.13;;;18.17;;
38379;SDS011;38377;47.418;18.882;2024-03-23T04:04:57;32.67;;;15.20;;
38379;SDS011;38377;47.418;18.882;2024-03-23T04:07:35;30.50;;;16.60;;
38379;SDS011;38377;47.418;18.882;2024-03-23T04:10:01;30.90;;;16.63;;
38379;SDS011;38377;47.418;18.882;2024-03-23T04:12:30;33.00;;;17.13;;
38379;SDS011;38377;47.418;18.882;2024-03-23T04:18:42;29.67;;;16.30;;
38379;SDS011;38377;47.418;18.882;2024-03-23T04:21:09;26.97;;;15.63;;
38379;SDS011;38377;47.418;18.882;2024-03-23T04:24:08;26.80;;;15.20;;
38379;SDS011;38377;47.418;18.882;2024-03-23T04:29:38;29.70;;;16.15;;
38379;SDS011;38377;47.418;18.882;2024-03-23T04:32:04;30.33;;;15.60;;
38379;SDS011;38377;47.418;18.882;2024-03-23T04:34:30;25.23;;;15.23;;
38379;SDS011;38377;47.418;18.882;2024-03-23T04:36:57;27.53;;;15.60;;
38379;SDS011;38377;47.418;18.882;2024-03-23T04:39:24;26.20;;;15.57;;
38379;SDS011;38377;47.418;18.882;2024-03-23T04:41:52;27.92;;;14.95;;
38379;SDS011;38377;47.418;18.882;2024-03-23T04:44:18;23.57;;;15.13;;
38379;SDS011;38377;47.418;18.882;2024-03-23T04:46:43;27.10;;;15.75;;
38379;SDS011;38377;47.418;18.882;2024-03-23T04:52:56;24.00;;;13.98;;
38379;SDS011;38377;47.418;18.882;2024-03-23T04:58:36;25.20;;;14.70;;
38379;SDS011;38377;47.418;18.882;2024-03-23T05:01:03;25.90;;;15.07;;
38379;SDS011;38377;47.418;18.882;2024-03-23T05:03:58;25.73;;;15.70;;
38379;SDS011;38377;47.418;18.882;2024-03-23T05:06:42;23.23;;;14.02;;
38379;SDS011;38377;47.418;18.882;2024-03-23T05:13:17;25.70;;;15.83;;
38379;SDS011;38377;47.418;18.882;2024-03-23T05:22:52;36.63;;;16.73;;
38379;SDS011;38377;47.418;18.882;2024-03-23T05:25:33;32.47;;;17.55;;
38379;SDS011;38377;47.418;18.882;2024-03-23T05:27:59;34.40;;;18.08;;
38379;SDS011;38377;47.418;18.882;2024-03-23T05:30:25;34.38;;;18.35;;
38379;SDS011;38377;47.418;18.882;2024-03-23T05:32:50;32.90;;;18.50;;
38379;SDS011;38377;47.418;18.882;2024-03-23T05:35:16;35.15;;;18.85;;
38379;SDS011;38377;47.418;18.882;2024-03-23T05:37:44;33.75;;;19.73;;
38379;SDS011;38377;47.418;18.882;2024-03-23T05:40:10;32.97;;;18.75;;
38379;SDS011;38377;47.418;18.882;2024-03-23T05:42:37;43.20;;;19.02;;
38379;SDS011;38377;47.418;18.882;2024-03-23T05:45:04;42.38;;;17.45;;
38379;SDS011;38377;47.418;18.882;2024-03-23T05:47:31;30.08;;;17.02;;
38379;SDS011;38377;47.418;18.882;2024-03-23T05:50:00;29.05;;;16.20;;
38379;SDS011;38377;47.418;18.882;2024-03-23T05:52:26;24.45;;;16.33;;
38379;SDS011;38377;47.418;18.882;2024-03-23T05:54:52;27.50;;;15.65;;
38379;SDS011;38377;47.418;18.882;2024-03-23T05:57:26;23.20;;;13.70;;
38379;SDS011;38377;47.418;18.882;2024-03-23T05:59:57;25.83;;;14.40;;
38379;SDS011;38377;47.418;18.882;2024-03-23T06:02:26;24.00;;;15.25;;
38379;SDS011;38377;47.418;18.882;2024-03-23T06:04:52;23.13;;;14.02;;
38379;SDS011;38377;47.418;18.882;2024-03-23T06:07:31;27.30;;;13.88;;
38379;SDS011;38377;47.418;18.882;2024-03-23T06:09:56;23.05;;;14.05;;
38379;SDS011;38377;47.418;18.882;2024-03-23T06:12:22;27.00;;;15.60;;
38379;SDS011;38377;47.418;18.882;2024-03-23T06:14:51;24.08;;;14.80;;
38379;SDS011;38377;47.418;18.882;2024-03-23T06:17:19;19.95;;;12.65;;
38379;SDS011;38377;47.418;18.882;2024-03-23T06:19:53;23.60;;;13.95;;
38379;SDS011;38377;47.418;18.882;2024-03-23T06:22:24;23.30;;;13.55;;
38379;SDS011;38377;47.418;18.882;2024-03-23T06:24:57;21.70;;;13.85;;
38379;SDS011;38377;47.418;18.882;2024-03-23T06:27:22;22.73;;;13.82;;
38379;SDS011;38377;47.418;18.882;2024-03-23T06:29:48;44.05;;;14.35;;
38379;SDS011;38377;47.418;18.882;2024-03-23T06:32:14;19.50;;;12.88;;
38379;SDS011;38377;47.418;18.882;2024-03-23T06:34:42;21.60;;;12.25;;
38379;SDS011;38377;47.418;18.882;2024-03-23T06:37:08;20.55;;;12.27;;
38379;SDS011;38377;47.418;18.882;2024-03-23T06:39:37;16.83;;;11.85;;
38379;SDS011;38377;47.418;18.882;2024-03-23T06:42:03;18.15;;;12.30;;
38379;SDS011;38377;47.418;18.882;2024-03-23T06:44:29;20.08;;;11.40;;
38379;SDS011;38377;47.418;18.882;2024-03-23T06:46:55;18.92;;;11.45;;
38379;SDS011;38377;47.418;18.882;2024-03-23T06:49:22;18.38;;;11.57;;
38379;SDS011;38377;47.418;18.882;2024-03-23T06:51:51;19.35;;;12.25;;
38379;SDS011;38377;47.418;18.882;2024-03-23T06:54:17;17.85;;;11.02;;
38379;SDS011;38377;47.418;18.882;2024-03-23T06:56:46;17.50;;;11.55;;
38379;SDS011;38377;47.418;18.882;2024-03-23T07:01:51;19.52;;;11.70;;
38379;SDS011;38377;47.418;18.882;2024-03-23T07:04:19;17.27;;;11.30;;
38379;SDS011;38377;47.418;18.882;2024-03-23T07:06:45;16.73;;;11.77;;
38379;SDS011;38377;47.418;18.882;2024-03-23T07:09:10;18.70;;;13.15;;
38379;SDS011;38377;47.418;18.882;2024-03-23T07:11:36;19.88;;;13.20;;
38379;SDS011;38377;47.418;18.882;2024-03-23T07:14:02;23.08;;;12.55;;
38379;SDS011;38377;47.418;18.882;2024-03-23T07:16:31;21.02;;;12.85;;
38379;SDS011;38377;47.418;18.882;2024-03-23T07:19:02;20.88;;;12.52;;
38379;SDS011;38377;47.418;18.882;2024-03-23T07:21:34;19.20;;;13.43;;
38379;SDS011;38377;47.418;18.882;2024-03-23T07:26:57;22.85;;;15.20;;
38379;SDS011;38377;47.418;18.882;2024-03-23T07:29:23;23.52;;;14.35;;
38379;SDS011;38377;47.418;18.882;2024-03-23T07:31:49;23.75;;;14.25;;
38379;SDS011;38377;47.418;18.882;2024-03-23T07:34:18;25.15;;;15.07;;
38379;SDS011;38377;47.418;18.882;2024-03-23T07:36:46;20.92;;;12.73;;
38379;SDS011;38377;47.418;18.882;2024-03-23T07:39:12;21.58;;;13.15;;
38379;SDS011;38377;47.418;18.882;2024-03-23T07:41:43;27.00;;;14.45;;
38379;SDS011;38377;47.418;18.882;2024-03-23T07:49:31;23.23;;;14.32;;
38379;SDS011;38377;47.418;18.882;2024-03-23T07:52:00;21.50;;;14.73;;
38379;SDS011;38377;47.418;18.882;2024-03-23T07:54:34;21.52;;;13.30;;
38379;SDS011;38377;47.418;18.882;2024-03-23T07:56:59;20.75;;;14.40;;
38379;SDS011;38377;47.418;18.882;2024-03-23T07:59:25;22.90;;;14.15;;
38379;SDS011;38377;47.418;18.882;2024-03-23T08:01:54;32.70;;;15.77;;
38379;SDS011;38377;47.418;18.882;2024-03-23T08:04:20;16.48;;;12.52;;
38379;SDS011;38377;47.418;18.882;2024-03-23T08:06:59;23.05;;;12.52;;
38379;SDS011;38377;47.418;18.882;2024-03-23T08:09:28;23.55;;;14.10;;
38379;SDS011;38377;47.418;18.882;2024-03-23T08:11:56;21.40;;;14.10;;
38379;SDS011;38377;47.418;18.882;2024-03-23T08:16:53;18.88;;;12.75;;
38379;SDS011;38377;47.418;18.882;2024-03-23T08:19:27;17.73;;;11.85;;
38379;SDS011;38377;47.418;18.882;2024-03-23T08:53:55;18.60;;;8.82;;
38379;SDS011;38377;47.418;18.882;2024-03-23T08:56:21;15.65;;;9.70;;
38379;SDS011;38377;47.418;18.882;2024-03-23T08:58:46;13.60;;;9.18;;
38379;SDS011;38377;47.418;18.882;2024-03-23T09:04:21;12.98;;;9.88;;
38379;SDS011;38377;47.418;18.882;2024-03-23T09:06:49;14.85;;;9.95;;
38379;SDS011;38377;47.418;18.882;2024-03-23T09:09:15;10.98;;;8.27;;
38379;SDS011;38377;47.418;18.882;2024-03-23T09:11:40;10.65;;;7.20;;
38379;SDS011;38377;47.418;18.882;2024-03-23T09:14:13;10.75;;;7.80;;
38379;SDS011;38377;47.418;18.882;2024-03-23T09:16:41;11.60;;;7.55;;
38379;SDS011;38377;47.418;18.882;2024-03-23T09:19:12;11.32;;;6.53;;
38379;SDS011;38377;47.418;18.882;2024-03-23T09:24:36;9.43;;;6.53;;
38379;SDS011;38377;47.418;18.882;2024-03-23T09:27:10;8.38;;;5.82;;
38379;SDS011;38377;47.418;18.882;2024-03-23T09:32:35;9.88;;;6.90;;
38379;SDS011;38377;47.418;18.882;2024-03-23T09:35:10;11.07;;;7.72;;
38379;SDS011;38377;47.418;18.882;2024-03-23T09:37:45;9.88;;;7.03;;
38379;SDS011;38377;47.418;18.882;2024-03-23T09:40:11;13.77;;;7.70;;
38379;SDS011;38377;47.418;18.882;2024-03-23T09:42:38;13.50;;;7.57;;
38379;SDS011;38377;47.418;18.882;2024-03-23T09:45:07;9.82;;;6.95;;
38379;SDS011;38377;47.418;18.882;2024-03-23T09:48:09;10.73;;;7.13;;
38379;SDS011;38377;47.418;18.882;2024-03-23T09:51:05;10.70;;;6.75;;
38379;SDS011;38377;47.418;18.882;2024-03-23T09:53:39;13.27;;;7.50;;
38379;SDS011;38377;47.418;18.882;2024-03-23T09:56:25;8.38;;;6.68;;
38379;SDS011;38377;47.418;18.882;2024-03-23T09:59:05;10.07;;;6.10;;
38379;SDS011;38377;47.418;18.882;2024-03-23T10:01:31;8.82;;;6.45;;
38379;SDS011;38377;47.418;18.882;2024-03-23T10:03:59;12.32;;;7.53;;
38379;SDS011;38377;47.418;18.882;2024-03-23T10:06:46;10.40;;;6.82;;
38379;SDS011;38377;47.418;18.882;2024-03-23T10:09:20;16.65;;;7.60;;
38379;SDS011;38377;47.418;18.882;2024-03-23T10:11:50;8.50;;;6.35;;
38379;SDS011;38377;47.418;18.882;2024-03-23T10:14:41;9.07;;;6.47;;
38379;SDS011;38377;47.418;18.882;2024-03-23T10:20:03;9.43;;;5.95;;
38379;SDS011;38377;47.418;18.882;2024-03-23T10:22:38;9.38;;;6.18;;
38379;SDS011;38377;47.418;18.882;2024-03-23T10:25:08;8.02;;;5.68;;
38379;SDS011;38377;47.418;18.882;2024-03-23T10:27:57;10.55;;;5.80;;
38379;SDS011;38377;47.418;18.882;2024-03-23T10:30:41;7.70;;;4.93;;
38379;SDS011;38377;47.418;18.882;2024-03-23T10:33:07;10.32;;;5.15;;
38379;SDS011;38377;47.418;18.882;2024-03-23T10:35:58;8.52;;;4.97;;
38379;SDS011;38377;47.418;18.882;2024-03-23T10:39:04;11.57;;;5.50;;
38379;SDS011;38377;47.418;18.882;2024-03-23T10:41:31;7.13;;;4.75;;
38379;SDS011;38377;47.418;18.882;2024-03-23T10:44:09;9.73;;;4.70;;
38379;SDS011;38377;47.418;18.882;2024-03-23T10:46:44;6.65;;;4.88;;
38379;SDS011;38377;47.418;18.882;2024-03-23T10:52:48;10.15;;;4.45;;
38379;SDS011;38377;47.418;18.882;2024-03-23T10:55:27;6.88;;;3.90;;
38379;SDS011;38377;47.418;18.882;2024-03-23T10:58:03;14.05;;;4.72;;
38379;SDS011;38377;47.418;18.882;2024-03-23T11:00:34;6.50;;;4.47;;
38379;SDS011;38377;47.418;18.882;2024-03-23T11:12:17;6.38;;;3.72;;
38379;SDS011;38377;47.418;18.882;2024-03-23T11:17:50;6.65;;;3.97;;
38379;SDS011;38377;47.418;18.882;2024-03-23T11:20:34;7.40;;;4.00;;
38379;SDS011;38377;47.418;18.882;2024-03-23T11:23:31;6.97;;;4.05;;
38379;SDS011;38377;47.418;18.882;2024-03-23T11:25:57;8.93;;;4.22;;
38379;SDS011;38377;47.418;18.882;2024-03-23T11:28:22;8.20;;;4.30;;
38379;SDS011;38377;47.418;18.882;2024-03-23T11:30:48;5.60;;;4.35;;
38379;SDS011;38377;47.418;18.882;2024-03-23T11:33:14;6.50;;;4.05;;
38379;SDS011;38377;47.418;18.882;2024-03-23T11:35:46;5.03;;;3.53;;
38379;SDS011;38377;47.418;18.882;2024-03-23T11:40:38;10.73;;;3.40;;
38379;SDS011;38377;47.418;18.882;2024-03-23T11:43:10;6.45;;;3.67;;
38379;SDS011;38377;47.418;18.882;2024-03-23T11:45:52;7.00;;;3.72;;
38379;SDS011;38377;47.418;18.882;2024-03-23T11:48:22;6.65;;;3.72;;
38379;SDS011;38377;47.418;18.882;2024-03-23T11:50:57;4.78;;;3.45;;
38379;SDS011;38377;47.418;18.882;2024-03-23T11:53:26;6.20;;;4.25;;
38379;SDS011;38377;47.418;18.882;2024-03-23T11:55:53;5.32;;;3.58;;
38379;SDS011;38377;47.418;18.882;2024-03-23T11:58:35;4.10;;;3.03;;
38379;SDS011;38377;47.418;18.882;2024-03-23T12:01:20;6.25;;;3.50;;
38379;SDS011;38377;47.418;18.882;2024-03-23T12:03:47;4.63;;;3.00;;
38379;SDS011;38377;47.418;18.882;2024-03-23T12:06:12;6.82;;;3.58;;
38379;SDS011;38377;47.418;18.882;2024-03-23T12:08:44;4.65;;;3.20;;
38379;SDS011;38377;47.418;18.882;2024-03-23T12:11:17;7.00;;;3.70;;
38379;SDS011;38377;47.418;18.882;2024-03-23T12:13:54;4.70;;;2.92;;
38379;SDS011;38377;47.418;18.882;2024-03-23T12:16:38;5.28;;;3.00;;
38379;SDS011;38377;47.418;18.882;2024-03-23T12:19:29;4.20;;;3.00;;
38379;SDS011;38377;47.418;18.882;2024-03-23T12:21:57;5.80;;;2.80;;
38379;SDS011;38377;47.418;18.882;2024-03-23T12:25:14;4.82;;;2.67;;
38379;SDS011;38377;47.418;18.882;2024-03-23T12:30:39;3.28;;;2.05;;
38379;SDS011;38377;47.418;18.882;2024-03-23T12:33:08;5.88;;;2.60;;
38379;SDS011;38377;47.418;18.882;2024-03-23T12:35:36;4.43;;;2.28;;
38379;SDS011;38377;47.418;18.882;2024-03-23T12:38:05;2.97;;;2.33;;
38379;SDS011;38377;47.418;18.882;2024-03-23T12:40:31;4.35;;;2.65;;
38379;SDS011;38377;47.418;18.882;2024-03-23T12:42:57;4.15;;;2.30;;
38379;SDS011;38377;47.418;18.882;2024-03-23T12:45:27;4.30;;;2.22;;
38379;SDS011;38377;47.418;18.882;2024-03-23T12:47:53;4.55;;;2.42;;
38379;SDS011;38377;47.418;18.882;2024-03-23T12:50:19;3.38;;;2.70;;
38379;SDS011;38377;47.418;18.882;2024-03-23T12:52:45;8.40;;;2.75;;
38379;SDS011;38377;47.418;18.882;2024-03-23T12:55:10;2.85;;;2.13;;
38379;SDS011;38377;47.418;18.882;2024-03-23T12:57:36;6.70;;;2.70;;
38379;SDS011;38377;47.418;18.882;2024-03-23T13:00:02;4.95;;;2.35;;
38379;SDS011;38377;47.418;18.882;2024-03-23T13:02:29;3.08;;;2.42;;
38379;SDS011;38377;47.418;18.882;2024-03-23T13:04:55;3.53;;;2.38;;
38379;SDS011;38377;47.418;18.882;2024-03-23T13:07:21;4.05;;;2.42;;
38379;SDS011;38377;47.418;18.882;2024-03-23T13:09:51;4.95;;;2.00;;
38379;SDS011;38377;47.418;18.882;2024-03-23T13:12:17;5.45;;;2.03;;
38379;SDS011;38377;47.418;18.882;2024-03-23T13:14:46;3.13;;;1.70;;
38379;SDS011;38377;47.418;18.882;2024-03-23T13:17:12;5.55;;;2.20;;
38379;SDS011;38377;47.418;18.882;2024-03-23T13:19:38;3.95;;;2.40;;
38379;SDS011;38377;47.418;18.882;2024-03-23T13:22:04;3.30;;;2.20;;
38379;SDS011;38377;47.418;18.882;2024-03-23T13:24:30;4.03;;;2.78;;
38379;SDS011;38377;47.418;18.882;2024-03-23T13:27:01;3.47;;;2.40;;
38379;SDS011;38377;47.418;18.882;2024-03-23T13:29:35;4.85;;;2.08;;
38379;SDS011;38377;47.418;18.882;2024-03-23T13:32:02;3.00;;;1.92;;
38379;SDS011;38377;47.418;18.882;2024-03-23T13:34:28;3.55;;;2.70;;
38379;SDS011;38377;47.418;18.882;2024-03-23T13:36:54;4.25;;;2.25;;
38379;SDS011;38377;47.418;18.882;2024-03-23T13:39:23;3.50;;;2.10;;
38379;SDS011;38377;47.418;18.882;2024-03-23T13:41:48;3.13;;;2.13;;
38379;SDS011;38377;47.418;18.882;2024-03-23T13:44:28;5.35;;;2.38;;
38379;SDS011;38377;47.418;18.882;2024-03-23T13:47:11;3.50;;;2.58;;
38379;SDS011;38377;47.418;18.882;2024-03-23T13:49:37;4.25;;;2.20;;
38379;SDS011;38377;47.418;18.882;2024-03-23T13:52:02;3.50;;;2.15;;
38379;SDS011;38377;47.418;18.882;2024-03-23T13:54:35;3.92;;;2.60;;
38379;SDS011;38377;47.418;18.882;2024-03-23T13:57:00;4.15;;;2.38;;
38379;SDS011;38377;47.418;18.882;2024-03-23T13:59:49;4.38;;;2.50;;
38379;SDS011;38377;47.418;18.882;2024-03-23T14:02:14;4.15;;;2.05;;
38379;SDS011;38377;47.418;18.882;2024-03-23T14:04:40;5.32;;;2.30;;
38379;SDS011;38377;47.418;18.882;2024-03-23T14:07:15;2.65;;;1.73;;
38379;SDS011;38377;47.418;18.882;2024-03-23T14:09:42;3.35;;;2.00;;
38379;SDS011;38377;47.418;18.882;2024-03-23T14:12:08;1.95;;;1.67;;
38379;SDS011;38377;47.418;18.882;2024-03-23T14:14:55;4.82;;;1.90;;
38379;SDS011;38377;47.418;18.882;2024-03-23T14:17:20;3.85;;;1.90;;
38379;SDS011;38377;47.418;18.882;2024-03-23T14:19:46;3.40;;;2.33;;
38379;SDS011;38377;47.418;18.882;2024-03-23T14:22:33;2.22;;;1.90;;
38379;SDS011;38377;47.418;18.882;2024-03-23T14:24:58;3.75;;;1.80;;
38379;SDS011;38377;47.418;18.882;2024-03-23T14:27:26;2.65;;;1.77;;
38379;SDS011;38377;47.418;18.882;2024-03-23T14:29:54;4.35;;;2.17;;
38379;SDS011;38377;47.418;18.882;2024-03-23T14:32:21;3.58;;;2.22;;
38379;SDS011;38377;47.418;18.882;2024-03-23T14:34:47;5.63;;;3.13;;
38379;SDS011;38377;47.418;18.882;2024-03-23T14:37:16;7.40;;;2.90;;
38379;SDS011;38377;47.418;18.882;2024-03-23T14:39:51;3.55;;;2.45;;
38379;SDS011;38377;47.418;18.882;2024-03-23T14:42:17;5.15;;;3.53;;
38379;SDS011;38377;47.418;18.882;2024-03-23T14:44:44;3.45;;;2.47;;
38379;SDS011;38377;47.418;18.882;2024-03-23T14:47:10;4.38;;;2.70;;
38379;SDS011;38377;47.418;18.882;2024-03-23T14:49:36;4.82;;;2.70;;
38379;SDS011;38377;47.418;18.882;2024-03-23T14:52:05;5.53;;;3.47;;
38379;SDS011;38377;47.418;18.882;2024-03-23T14:54:39;4.45;;;2.97;;
38379;SDS011;38377;47.418;18.882;2024-03-23T14:57:08;3.63;;;3.08;;
38379;SDS011;38377;47.418;18.882;2024-03-23T14:59:36;5.00;;;3.03;;
38379;SDS011;38377;47.418;18.882;2024-03-23T15:02:08;7.57;;;4.55;;
38379;SDS011;38377;47.418;18.882;2024-03-23T15:04:34;5.10;;;3.55;;
38379;SDS011;38377;47.418;18.882;2024-03-23T15:07:00;6.20;;;3.92;;
38379;SDS011;38377;47.418;18.882;2024-03-23T15:09:28;7.70;;;4.47;;
38379;SDS011;38377;47.418;18.882;2024-03-23T15:11:53;7.15;;;4.22;;
38379;SDS011;38377;47.418;18.882;2024-03-23T15:14:20;6.32;;;4.40;;
38379;SDS011;38377;47.418;18.882;2024-03-23T15:16:46;6.47;;;4.15;;
38379;SDS011;38377;47.418;18.882;2024-03-23T15:19:14;6.63;;;4.40;;
38379;SDS011;38377;47.418;18.882;2024-03-23T15:21:53;7.15;;;3.83;;
38379;SDS011;38377;47.418;18.882;2024-03-23T15:24:19;5.28;;;3.22;;
38379;SDS011;38377;47.418;18.882;2024-03-23T15:26:46;5.47;;;3.97;;
38379;SDS011;38377;47.418;18.882;2024-03-23T15:29:16;6.15;;;3.65;;
38379;SDS011;38377;47.418;18.882;2024-03-23T15:31:42;5.28;;;3.15;;
38379;SDS011;38377;47.418;18.882;2024-03-23T15:34:08;4.30;;;3.10;;
38379;SDS011;38377;47.418;18.882;2024-03-23T15:36:37;6.97;;;4.63;;
38379;SDS011;38377;47.418;18.882;2024-03-23T15:39:08;5.97;;;3.78;;
38379;SDS011;38377;47.418;18.882;2024-03-23T15:41:34;6.95;;;4.07;;
38379;SDS011;38377;47.418;18.882;2024-03-23T15:44:01;5.13;;;3.50;;
38379;SDS011;38377;47.418;18.882;2024-03-23T15:46:27;5.97;;;4.35;;
38379;SDS011;38377;47.418;18.882;2024-03-23T15:48:52;5.68;;;3.33;;
38379;SDS011;38377;47.418;18.882;2024-03-23T15:51:21;6.18;;;3.97;;
38379;SDS011;38377;47.418;18.882;2024-03-23T15:53:47;5.55;;;4.03;;
38379;SDS011;38377;47.418;18.882;2024-03-23T15:56:12;4.63;;;2.95;;
38379;SDS011;38377;47.418;18.882;2024-03-23T15:58:38;3.97;;;2.95;;
38379;SDS011;38377;47.418;18.882;2024-03-23T16:01:08;6.38;;;3.70;;
38379;SDS011;38377;47.418;18.882;2024-03-23T16:06:05;4.22;;;3.03;;
38379;SDS011;38377;47.418;18.882;2024-03-23T16:08:34;9.50;;;3.40;;
38379;SDS011;38377;47.418;18.882;2024-03-23T16:11:04;7.93;;;4.07;;
38379;SDS011;38377;47.418;18.882;2024-03-23T16:13:31;8.73;;;3.40;;
38379;SDS011;38377;47.418;18.882;2024-03-23T16:18:49;5.30;;;3.60;;
38379;SDS011;38377;47.418;18.882;2024-03-23T16:21:15;4.50;;;3.38;;
38379;SDS011;38377;47.418;18.882;2024-03-23T16:23:45;4.45;;;3.10;;
38379;SDS011;38377;47.418;18.882;2024-03-23T16:26:11;5.90;;;3.00;;
38379;SDS011;38377;47.418;18.882;2024-03-23T16:28:42;6.85;;;4.20;;
38379;SDS011;38377;47.418;18.882;2024-03-23T16:31:08;4.30;;;3.38;;
38379;SDS011;38377;47.418;18.882;2024-03-23T16:33:35;4.95;;;3.15;;
38379;SDS011;38377;47.418;18.882;2024-03-23T16:36:05;5.57;;;3.58;;
38379;SDS011;38377;47.418;18.882;2024-03-23T16:38:35;5.00;;;3.83;;
38379;SDS011;38377;47.418;18.882;2024-03-23T16:41:35;6.40;;;4.30;;
38379;SDS011;38377;47.418;18.882;2024-03-23T16:43:54;6.72;;;3.70;;
38379;SDS011;38377;47.418;18.882;2024-03-23T16:46:23;7.05;;;3.72;;
38379;SDS011;38377;47.418;18.882;2024-03-23T16:48:51;9.68;;;4.55;;
38379;SDS011;38377;47.418;18.882;2024-03-23T16:51:17;9.85;;;5.30;;
38379;SDS011;38377;47.418;18.882;2024-03-23T16:53:43;10.27;;;6.68;;
38379;SDS011;38377;47.418;18.882;2024-03-23T16:56:20;11.25;;;7.35;;
38379;SDS011;38377;47.418;18.882;2024-03-23T16:59:14;8.20;;;4.80;;
38379;SDS011;38377;47.418;18.882;2024-03-23T17:01:45;12.10;;;4.18;;
38379;SDS011;38377;47.418;18.882;2024-03-23T17:04:10;5.45;;;1.40;;
38379;SDS011;38377;47.418;18.882;2024-03-23T17:06:37;2.70;;;0.60;;
38379;SDS011;38377;47.418;18.882;2024-03-23T17:09:05;2.67;;;0.60;;
38379;SDS011;38377;47.418;18.882;2024-03-23T17:11:38;4.18;;;0.65;;
38379;SDS011;38377;47.418;18.882;2024-03-23T17:14:07;6.28;;;1.02;;
38379;SDS011;38377;47.418;18.882;2024-03-23T17:16:33;6.72;;;0.60;;
38379;SDS011;38377;47.418;18.882;2024-03-23T17:18:59;7.28;;;0.73;;
38379;SDS011;38377;47.418;18.882;2024-03-23T17:21:25;3.30;;;0.75;;
38379;SDS011;38377;47.418;18.882;2024-03-23T17:23:52;4.45;;;0.50;;
38379;SDS011;38377;47.418;18.882;2024-03-23T17:26:21;2.50;;;0.38;;
38379;SDS011;38377;47.418;18.882;2024-03-23T17:28:48;12.20;;;1.00;;
38379;SDS011;38377;47.418;18.882;2024-03-23T17:31:20;0.93;;;0.40;;
38379;SDS011;38377;47.418;18.882;2024-03-23T17:33:49;4.55;;;0.57;;
38379;SDS011;38377;47.418;18.882;2024-03-23T17:36:16;2.15;;;0.50;;
38379;SDS011;38377;47.418;18.882;2024-03-23T17:38:48;1.95;;;0.57;;
38379;SDS011;38377;47.418;18.882;2024-03-23T17:41:13;1.83;;;0.80;;
38379;SDS011;38377;47.418;18.882;2024-03-23T17:43:39;1.85;;;0.70;;
38379;SDS011;38377;47.418;18.882;2024-03-23T17:46:04;2.97;;;0.60;;